createdAt,value
2018-05-16T00:00:00.517Z,99260.08
2018-05-16T00:02:28.088Z,99255.05
2018-05-16T00:04:55.694Z,99268.38
2018-05-16T00:07:23.309Z,99256.47
2018-05-16T00:09:50.894Z,99259.39
2018-05-16T00:12:18.685Z,99241.63
2018-05-16T00:14:46.275Z,99244.33
2018-05-16T00:17:13.877Z,99239.02
2018-05-16T00:19:41.489Z,99234.09
2018-05-16T00:22:09.066Z,99247.04
2018-05-16T00:24:36.658Z,99250.30
2018-05-16T00:27:04.275Z,99246.37
2018-05-16T00:29:31.894Z,99268.45
2018-05-16T00:31:59.469Z,99268.20
2018-05-16T00:34:27.089Z,99273.22
2018-05-16T00:36:54.678Z,99273.16
2018-05-16T00:39:22.265Z,99269.95
2018-05-16T00:41:49.879Z,99273.39
2018-05-16T00:44:17.474Z,99272.72
2018-05-16T00:46:45.069Z,99275.63
2018-05-16T00:49:12.696Z,99285.77
2018-05-16T00:51:40.287Z,99283.45
2018-05-16T00:54:07.875Z,99276.33
2018-05-16T00:56:35.514Z,99259.48
2018-05-16T00:59:03.093Z,99261.22
2018-05-16T01:01:30.676Z,99252.80
2018-05-16T01:03:58.298Z,99242.59
2018-05-16T01:06:25.875Z,99238.42
2018-05-16T01:08:53.457Z,99230.65
2018-05-16T01:11:21.080Z,99225.44
2018-05-16T01:13:50.484Z,99212.67
2018-05-16T01:16:18.081Z,99213.02
2018-05-16T01:18:45.717Z,99220.08
2018-05-16T01:21:13.312Z,99218.06
2018-05-16T01:23:40.911Z,99210.19
2018-05-16T01:26:08.536Z,99219.02
2018-05-16T01:28:36.127Z,99219.24
2018-05-16T01:31:03.727Z,99212.70
2018-05-16T01:33:31.352Z,99214.22
2018-05-16T01:35:58.937Z,99219.48
2018-05-16T01:38:27.178Z,99213.97
2018-05-16T01:40:55.581Z,99228.41
2018-05-16T01:43:23.168Z,99234.64
2018-05-16T01:45:50.758Z,99236.45
2018-05-16T01:48:18.386Z,99227.86
2018-05-16T01:50:45.981Z,99226.55
2018-05-16T01:53:13.568Z,99235.67
2018-05-16T01:55:41.200Z,99223.98
2018-05-16T01:58:08.784Z,99230.61
2018-05-16T02:00:36.391Z,99231.80
2018-05-16T02:03:04.028Z,99235.80
2018-05-16T02:05:31.615Z,99235.39
2018-05-16T02:07:59.199Z,99228.39
2018-05-16T02:10:26.827Z,99239.09
2018-05-16T02:12:54.409Z,99247.72
2018-05-16T02:15:22.010Z,99245.44
2018-05-16T02:17:49.641Z,99245.11
2018-05-16T02:20:17.227Z,99254.01
2018-05-16T02:22:44.849Z,99245.38
2018-05-16T02:25:12.468Z,99238.82
2018-05-16T02:27:40.076Z,99227.76
2018-05-16T02:30:07.669Z,99235.76
2018-05-16T02:32:35.292Z,99229.08
2018-05-16T02:35:02.890Z,99236.33
2018-05-16T02:37:30.537Z,99249.78
2018-05-16T02:39:58.152Z,99245.34
2018-05-16T02:42:25.749Z,99246.75
2018-05-16T02:44:53.337Z,99257.48
2018-05-16T02:47:20.956Z,99254.55
2018-05-16T02:49:48.556Z,99261.00
2018-05-16T02:52:16.152Z,99264.36
2018-05-16T02:54:43.820Z,99263.49
2018-05-16T02:57:11.413Z,99266.22
2018-05-16T02:59:39.003Z,99278.53
2018-05-16T03:02:06.639Z,99264.21
2018-05-16T03:04:34.244Z,99267.04
2018-05-16T03:07:01.843Z,99274.05
2018-05-16T03:09:29.493Z,99282.97
2018-05-16T03:11:57.094Z,99288.00
2018-05-16T03:14:24.694Z,99284.87
2018-05-16T03:16:52.328Z,99277.42
2018-05-16T03:19:19.935Z,99280.80
2018-05-16T03:21:47.537Z,99284.84
2018-05-16T03:24:15.173Z,99287.56
2018-05-16T03:26:42.756Z,99283.23
2018-05-16T03:29:10.353Z,99298.98
2018-05-16T03:31:37.970Z,99304.59
2018-05-16T03:34:05.558Z,99315.61
2018-05-16T03:36:33.152Z,99319.80
2018-05-16T03:39:00.798Z,99324.59
2018-05-16T03:41:28.394Z,99317.64
2018-05-16T03:43:55.990Z,99328.12
2018-05-16T03:46:23.632Z,99335.38
2018-05-16T03:48:51.228Z,99342.11
2018-05-16T03:51:18.823Z,99343.31
2018-05-16T03:53:46.474Z,99345.82
2018-05-16T03:56:14.066Z,99351.13
2018-05-16T03:58:53.438Z,99354.95
2018-05-16T04:01:32.660Z,99360.69
2018-05-16T04:04:11.955Z,99370.92
2018-05-16T04:06:39.554Z,99375.23
2018-05-16T04:09:07.131Z,99381.67
2018-05-16T04:11:34.761Z,99385.67
2018-05-16T04:14:02.340Z,99387.89
2018-05-16T04:16:29.917Z,99398.05
2018-05-16T04:18:57.557Z,99396.09
2018-05-16T04:21:25.149Z,99400.73
2018-05-16T04:23:52.739Z,99411.17
2018-05-16T04:26:20.355Z,99417.09
2018-05-16T04:28:47.958Z,99419.88
2018-05-16T04:31:15.582Z,99418.31
2018-05-16T04:33:43.199Z,99430.98
2018-05-16T04:36:10.803Z,99445.98
2018-05-16T04:38:38.383Z,99445.22
2018-05-16T04:41:06.022Z,99442.34
2018-05-16T04:43:33.791Z,99450.79
2018-05-16T04:46:01.380Z,99460.09
2018-05-16T04:48:29.004Z,99462.98
2018-05-16T04:50:56.589Z,99478.02
2018-05-16T04:53:24.181Z,99473.96
2018-05-16T04:55:51.794Z,99486.57
2018-05-16T04:58:19.376Z,99488.38
2018-05-16T05:00:46.955Z,99486.73
2018-05-16T05:03:14.589Z,99494.20
2018-05-16T05:05:42.187Z,99490.75
2018-05-16T05:08:09.768Z,99492.33
2018-05-16T05:10:37.396Z,99505.36
2018-05-16T05:13:04.977Z,99516.98
2018-05-16T05:15:32.556Z,99527.48
2018-05-16T05:18:00.155Z,99531.75
2018-05-16T05:20:27.740Z,99534.19
2018-05-16T05:22:55.333Z,99538.56
2018-05-16T05:25:22.947Z,99545.89
2018-05-16T05:27:50.536Z,99554.08
2018-05-16T05:30:18.156Z,99553.45
2018-05-16T05:32:45.765Z,99551.84
2018-05-16T05:35:13.345Z,99553.65
2018-05-16T05:37:40.942Z,99551.70
2018-05-16T05:40:08.574Z,99562.00
2018-05-16T05:42:36.148Z,99564.44
2018-05-16T05:45:03.743Z,99565.28
2018-05-16T05:47:31.367Z,99572.23
2018-05-16T05:49:58.952Z,99577.02
2018-05-16T05:52:26.531Z,99578.86
2018-05-16T05:54:54.150Z,99577.89
2018-05-16T05:57:21.730Z,99578.80
2018-05-16T05:59:49.315Z,99579.52
2018-05-16T06:02:16.936Z,99575.75
2018-05-16T06:04:44.531Z,99579.94
2018-05-16T06:07:12.098Z,99566.23
2018-05-16T06:09:39.730Z,99571.92
2018-05-16T06:12:07.320Z,99577.53
2018-05-16T06:14:34.983Z,99569.50
2018-05-16T06:17:02.610Z,99570.66
2018-05-16T06:19:30.264Z,99564.41
2018-05-16T06:21:57.809Z,99573.36
2018-05-16T06:24:25.508Z,99569.20
2018-05-16T06:26:53.088Z,99569.41
2018-05-16T06:29:20.719Z,99572.66
2018-05-16T06:31:48.340Z,99565.71
2018-05-16T06:34:15.921Z,99572.97
2018-05-16T06:36:43.520Z,99570.19
2018-05-16T06:39:11.243Z,99576.40
2018-05-16T06:41:38.767Z,99571.70
2018-05-16T06:44:06.353Z,99578.04
2018-05-16T06:46:33.980Z,99589.78
2018-05-16T06:49:01.568Z,99587.04
2018-05-16T06:51:29.134Z,99589.88
2018-05-16T06:53:56.789Z,99582.86
2018-05-16T06:56:24.416Z,99582.63
2018-05-16T06:58:51.995Z,99579.23
2018-05-16T07:01:19.627Z,99578.75
2018-05-16T07:03:47.220Z,99585.07
2018-05-16T07:06:14.800Z,99582.48
2018-05-16T07:08:42.430Z,99582.55
2018-05-16T07:11:10.027Z,99583.48
2018-05-16T07:13:37.743Z,99581.17
2018-05-16T07:16:05.338Z,99587.96
2018-05-16T07:18:32.912Z,99585.77
2018-05-16T07:21:00.500Z,99582.87
2018-05-16T07:23:28.116Z,99581.23
2018-05-16T07:25:55.689Z,99585.97
2018-05-16T07:28:23.262Z,99584.14
2018-05-16T07:30:50.880Z,99592.73
2018-05-16T07:33:18.445Z,99595.47
2018-05-16T07:35:46.018Z,99597.55
2018-05-16T07:38:13.627Z,99602.55
2018-05-16T07:40:41.196Z,99596.80
2018-05-16T07:43:08.763Z,99599.08
2018-05-16T07:45:36.356Z,99586.56
2018-05-16T07:48:03.953Z,99592.54
2018-05-16T07:50:31.528Z,99602.80
2018-05-16T07:52:59.873Z,99600.64
2018-05-16T07:55:27.468Z,99599.14
2018-05-16T07:57:55.046Z,99596.15
2018-05-16T08:00:22.644Z,99595.38
2018-05-16T08:02:50.212Z,99602.89
2018-05-16T08:05:17.777Z,99599.61
2018-05-16T08:07:45.381Z,99606.51
2018-05-16T08:10:12.957Z,99609.38
2018-05-16T08:12:40.521Z,99611.14
2018-05-16T08:15:08.123Z,99613.44
2018-05-16T08:17:35.695Z,99620.32
2018-05-16T08:20:03.289Z,99616.88
2018-05-16T08:22:30.909Z,99612.83
2018-05-16T08:24:58.493Z,99610.71
2018-05-16T08:27:26.073Z,99614.27
2018-05-16T08:29:53.682Z,99607.30
2018-05-16T08:32:21.254Z,99609.78
2018-05-16T08:34:48.819Z,99614.98
2018-05-16T08:37:16.441Z,99620.94
2018-05-16T08:39:44.036Z,99620.14
2018-05-16T08:42:11.641Z,99617.32
2018-05-16T08:44:39.275Z,99619.41
2018-05-16T08:47:06.844Z,99615.86
2018-05-16T08:49:34.439Z,99621.08
2018-05-16T08:52:02.063Z,99617.39
2018-05-16T08:54:29.646Z,99606.32
2018-05-16T08:56:57.235Z,99610.57
2018-05-16T08:59:24.867Z,99608.00
2018-05-16T09:01:52.454Z,99610.91
2018-05-16T09:04:20.029Z,99603.80
2018-05-16T09:06:47.645Z,99604.44
2018-05-16T09:09:15.225Z,99603.42
2018-05-16T09:11:42.800Z,99603.89
2018-05-16T09:14:10.406Z,99601.15
2018-05-16T09:16:37.972Z,99590.75
2018-05-16T09:19:05.547Z,99596.64
2018-05-16T09:21:33.173Z,99592.92
2018-05-16T09:24:00.760Z,99594.27
2018-05-16T09:26:28.339Z,99594.55
2018-05-16T09:28:55.954Z,99597.08
2018-05-16T09:31:23.557Z,99589.08
2018-05-16T09:33:51.175Z,99586.98
2018-05-16T09:36:18.798Z,99586.81
2018-05-16T09:38:46.419Z,99579.23
2018-05-16T09:41:14.009Z,99592.55
2018-05-16T09:43:41.680Z,99592.26
2018-05-16T09:46:09.253Z,99591.25
2018-05-16T09:48:36.877Z,99588.01
2018-05-16T09:51:04.511Z,99587.56
2018-05-16T09:53:32.100Z,99592.76
2018-05-16T09:55:59.705Z,99591.58
2018-05-16T09:58:27.487Z,99589.48
2018-05-16T10:00:55.065Z,99586.90
2018-05-16T10:03:22.642Z,99591.20
2018-05-16T10:05:50.264Z,99593.86
2018-05-16T10:08:17.847Z,99597.30
2018-05-16T10:10:45.429Z,99613.52
2018-05-16T10:13:13.038Z,99602.52
2018-05-16T10:15:40.642Z,99600.38
2018-05-16T10:18:08.227Z,99599.98
2018-05-16T10:20:35.914Z,99599.47
2018-05-16T10:23:03.486Z,99597.19
2018-05-16T10:25:31.088Z,99599.25
2018-05-16T10:27:58.728Z,99596.28
2018-05-16T10:30:26.304Z,99593.95
2018-05-16T10:32:53.868Z,99583.20
2018-05-16T10:35:21.468Z,99586.66
2018-05-16T10:37:49.023Z,99583.20
2018-05-16T10:40:16.595Z,99580.94
2018-05-16T10:42:44.227Z,99572.73
2018-05-16T10:45:11.797Z,99569.88
2018-05-16T10:47:39.359Z,99577.00
2018-05-16T10:50:06.967Z,99582.72
2018-05-16T10:52:34.526Z,99582.88
2018-05-16T10:55:02.116Z,99572.86
2018-05-16T10:57:29.836Z,99571.94
2018-05-16T10:59:57.511Z,99572.31
2018-05-16T11:02:25.105Z,99571.51
2018-05-16T11:04:52.705Z,99569.59
2018-05-16T11:07:20.267Z,99572.81
2018-05-16T11:09:47.820Z,99571.33
2018-05-16T11:12:15.426Z,99569.23
2018-05-16T11:14:43.011Z,99569.55
2018-05-16T11:17:10.583Z,99561.98
2018-05-16T11:19:38.205Z,99563.52
2018-05-16T11:22:05.772Z,99563.31
2018-05-16T11:24:33.377Z,99561.83
2018-05-16T11:27:00.990Z,99566.72
2018-05-16T11:29:28.546Z,99581.36
2018-05-16T11:31:56.117Z,99576.59
2018-05-16T11:34:23.732Z,99581.20
2018-05-16T11:36:51.335Z,99577.97
2018-05-16T11:39:18.908Z,99577.98
2018-05-16T11:41:46.501Z,99577.28
2018-05-16T11:44:14.083Z,99579.39
2018-05-16T11:46:41.653Z,99578.91
2018-05-16T11:49:09.247Z,99578.05
2018-05-16T11:51:36.822Z,99572.87
2018-05-16T11:54:04.376Z,99570.77
2018-05-16T11:56:31.967Z,99577.41
2018-05-16T11:58:59.539Z,99578.20
2018-05-16T12:01:27.094Z,99579.38
2018-05-16T12:03:54.780Z,99576.41
2018-05-16T12:06:22.345Z,99582.25
2018-05-16T12:08:49.927Z,99588.14
2018-05-16T12:11:17.535Z,99578.53
2018-05-16T12:13:45.090Z,99584.75
2018-05-16T12:16:12.705Z,99574.02
2018-05-16T12:18:40.302Z,99580.76
2018-05-16T12:21:07.869Z,99577.92
2018-05-16T12:23:35.429Z,99581.68
2018-05-16T12:26:03.020Z,99573.22
2018-05-16T12:28:30.594Z,99573.05
2018-05-16T12:30:58.180Z,99562.27
2018-05-16T12:33:25.776Z,99563.84
2018-05-16T12:35:53.350Z,99560.20
2018-05-16T12:38:20.926Z,99545.80
2018-05-16T12:40:48.529Z,99549.15
2018-05-16T12:43:18.113Z,99543.14
2018-05-16T12:45:45.736Z,99550.70
2018-05-16T12:48:13.356Z,99548.37
2018-05-16T12:50:40.915Z,99542.33
2018-05-16T12:53:08.488Z,99547.61
2018-05-16T12:55:36.095Z,99546.05
2018-05-16T12:58:03.665Z,99544.86
2018-05-16T13:00:31.264Z,99538.57
2018-05-16T13:02:58.881Z,99531.44
2018-05-16T13:05:26.466Z,99531.18
2018-05-16T13:07:54.053Z,99530.10
2018-05-16T13:10:21.682Z,99531.23
2018-05-16T13:12:49.273Z,99537.17
2018-05-16T13:15:16.877Z,99543.67
2018-05-16T13:17:44.582Z,99548.08
2018-05-16T13:20:12.147Z,99558.87
2018-05-16T13:22:39.710Z,99550.20
2018-05-16T13:25:07.344Z,99556.81
2018-05-16T13:27:34.924Z,99559.43
2018-05-16T13:30:02.487Z,99564.25
2018-05-16T13:32:30.096Z,99569.34
2018-05-16T13:34:57.665Z,99578.70
2018-05-16T13:37:25.517Z,99579.98
2018-05-16T13:39:53.130Z,99579.25
2018-05-16T13:42:20.721Z,99572.80
2018-05-16T13:44:48.294Z,99564.30
2018-05-16T13:47:15.893Z,99560.09
2018-05-16T13:49:43.455Z,99548.35
2018-05-16T13:52:11.097Z,99543.17
2018-05-16T13:54:38.802Z,99541.68
2018-05-16T13:57:06.441Z,99543.20
2018-05-16T13:59:34.028Z,99539.89
2018-05-16T14:02:01.648Z,99547.11
2018-05-16T14:04:29.223Z,99539.05
2018-05-16T14:06:56.800Z,99538.14
2018-05-16T14:09:24.400Z,99531.23
2018-05-16T14:11:52.029Z,99526.09
2018-05-16T14:14:19.612Z,99526.75
2018-05-16T14:16:47.221Z,99531.89
2018-05-16T14:19:14.807Z,99522.81
2018-05-16T14:21:43.246Z,99516.77
2018-05-16T14:24:11.795Z,99522.64
2018-05-16T14:26:40.000Z,99522.33
2018-05-16T14:29:07.755Z,99520.55
2018-05-16T14:31:35.357Z,99519.89
2018-05-16T14:34:02.924Z,99519.60
2018-05-16T14:36:30.514Z,99521.90
2018-05-16T14:38:58.153Z,99526.98
2018-05-16T14:41:25.733Z,99531.86
2018-05-16T14:43:53.333Z,99531.25
2018-05-16T14:46:20.945Z,99531.86
2018-05-16T14:48:48.528Z,99531.40
2018-05-16T14:51:16.085Z,99535.75
2018-05-16T14:53:43.698Z,99524.95
2018-05-16T14:56:11.617Z,99527.95
2018-05-16T14:58:39.180Z,99533.34
2018-05-16T15:01:06.787Z,99535.16
2018-05-16T15:03:34.356Z,99537.28
2018-05-16T15:06:01.941Z,99542.39
2018-05-16T15:08:29.549Z,99552.07
2018-05-16T15:10:57.132Z,99556.55
2018-05-16T15:13:24.713Z,99552.52
2018-05-16T15:15:52.322Z,99555.51
2018-05-16T15:18:19.899Z,99555.25
2018-05-16T15:20:47.583Z,99552.33
2018-05-16T15:23:15.212Z,99556.35
2018-05-16T15:25:42.785Z,99553.88
2018-05-16T15:28:10.369Z,99550.89
2018-05-16T15:30:37.976Z,99546.47
2018-05-16T15:33:05.622Z,99547.91
2018-05-16T15:35:33.185Z,99542.81
2018-05-16T15:38:00.792Z,99540.28
2018-05-16T15:40:28.376Z,99531.79
2018-05-16T15:42:55.998Z,99534.45
2018-05-16T15:45:23.627Z,99531.13
2018-05-16T15:47:51.202Z,99525.35
2018-05-16T15:50:18.770Z,99520.56
2018-05-16T15:52:46.361Z,99519.56
2018-05-16T15:55:13.926Z,99520.52
2018-05-16T15:57:41.503Z,99526.70
2018-05-16T16:00:09.136Z,99526.05
2018-05-16T16:02:36.710Z,99521.13
2018-05-16T16:05:04.290Z,99531.72
2018-05-16T16:07:31.896Z,99530.70
2018-05-16T16:09:59.473Z,99530.34
2018-05-16T16:12:27.056Z,99540.20
2018-05-16T16:14:54.742Z,99535.47
2018-05-16T16:17:22.322Z,99532.80
2018-05-16T16:19:49.892Z,99539.42
2018-05-16T16:22:17.516Z,99545.76
2018-05-16T16:24:45.114Z,99550.16
2018-05-16T16:27:12.723Z,99548.10
2018-05-16T16:29:40.771Z,99543.00
2018-05-16T16:32:08.455Z,99543.70
2018-05-16T16:34:36.550Z,99552.36
2018-05-16T16:37:04.883Z,99549.63
2018-05-16T16:39:32.471Z,99552.02
2018-05-16T16:42:00.998Z,99554.80
2018-05-16T16:44:28.617Z,99554.93
2018-05-16T16:46:56.182Z,99561.51
2018-05-16T16:49:23.760Z,99559.17
2018-05-16T16:51:51.398Z,99564.00
2018-05-16T16:54:18.988Z,99560.38
2018-05-16T16:56:46.627Z,99566.67
2018-05-16T16:59:14.244Z,99571.21
2018-05-16T17:01:42.121Z,99570.12
2018-05-16T17:04:09.718Z,99566.66
2018-05-16T17:06:37.337Z,99569.47
2018-05-16T17:09:05.115Z,99576.09
2018-05-16T17:11:32.685Z,99572.06
2018-05-16T17:14:00.333Z,99578.82
2018-05-16T17:16:27.948Z,99579.80
2018-05-16T17:18:55.528Z,99583.26
2018-05-16T17:21:23.143Z,99582.64
2018-05-16T17:23:50.711Z,99585.88
2018-05-16T17:26:18.307Z,99586.95
2018-05-16T17:28:45.919Z,99586.42
2018-05-16T17:31:13.477Z,99593.86
2018-05-16T17:33:41.066Z,99594.69
2018-05-16T17:36:08.666Z,99593.45
2018-05-16T17:38:38.651Z,99590.30
2018-05-16T17:41:06.228Z,99591.44
2018-05-16T17:43:33.855Z,99587.83
2018-05-16T17:46:01.511Z,99591.21
2018-05-16T17:48:29.103Z,99592.34
2018-05-16T17:50:56.706Z,99597.19
2018-05-16T17:53:24.304Z,99594.27
2018-05-16T17:55:51.872Z,99605.16
2018-05-16T17:58:19.464Z,99609.72
2018-05-16T18:00:47.096Z,99614.97
2018-05-16T18:03:14.623Z,99610.96
2018-05-16T18:05:42.557Z,99610.87
2018-05-16T18:08:10.133Z,99618.34
2018-05-16T18:10:37.729Z,99625.79
2018-05-16T18:16:28.391Z,99642.88
2018-05-16T18:18:55.976Z,99643.77
2018-05-16T18:21:23.551Z,99643.89
2018-05-16T18:23:51.141Z,99652.27
2018-05-16T18:26:18.730Z,99656.88
2018-05-16T18:28:46.312Z,99660.97
2018-05-16T18:31:13.884Z,99668.11
2018-05-16T18:33:41.489Z,99664.66
2018-05-16T18:36:09.111Z,99669.59
2018-05-16T18:38:36.668Z,99679.40
2018-05-16T18:41:04.249Z,99681.50
2018-05-16T18:43:31.817Z,99690.16
2018-05-16T18:45:59.397Z,99694.81
2018-05-16T18:48:27.016Z,99693.39
2018-05-16T18:50:54.588Z,99697.89
2018-05-16T18:53:22.149Z,99691.32
2018-05-16T18:55:49.819Z,99691.81
2018-05-16T18:58:17.392Z,99691.57
2018-05-16T19:00:44.995Z,99703.16
2018-05-16T19:03:12.589Z,99713.34
2018-05-16T19:05:40.194Z,99703.20
2018-05-16T19:08:07.774Z,99700.99
2018-05-16T19:10:35.372Z,99697.25
2018-05-16T19:13:02.949Z,99705.55
2018-05-16T19:15:30.534Z,99716.66
2018-05-16T19:17:58.153Z,99711.57
2018-05-16T19:20:25.754Z,99713.39
2018-05-16T19:22:53.323Z,99714.34
2018-05-16T19:25:21.551Z,99711.27
2018-05-16T19:27:49.136Z,99706.48
2018-05-16T19:30:16.704Z,99705.45
2018-05-16T19:32:44.301Z,99713.10
2018-05-16T19:35:11.860Z,99713.33
2018-05-16T19:37:39.466Z,99711.42
2018-05-16T19:40:07.389Z,99714.34
2018-05-16T19:42:34.969Z,99706.50
2018-05-16T19:45:02.534Z,99705.63
2018-05-16T19:47:30.156Z,99703.55
2018-05-16T19:49:57.748Z,99715.94
2018-05-16T19:52:25.314Z,99729.57
2018-05-16T19:54:52.949Z,99729.94
2018-05-16T19:57:20.531Z,99732.88
2018-05-16T19:59:48.101Z,99740.66
2018-05-16T20:02:15.706Z,99738.73
2018-05-16T20:04:43.307Z,99745.41
2018-05-16T20:07:10.892Z,99746.41
2018-05-16T20:09:39.705Z,99740.95
2018-05-16T20:12:07.294Z,99742.05
2018-05-16T20:14:34.981Z,99736.90
2018-05-16T20:17:02.553Z,99746.36
2018-05-16T20:19:30.139Z,99754.50
2018-05-16T20:21:57.742Z,99738.70
2018-05-16T20:24:25.353Z,99732.44
2018-05-16T20:26:52.947Z,99724.27
2018-05-16T20:29:20.551Z,99726.84
2018-05-16T20:31:48.186Z,99721.35
2018-05-16T20:34:16.392Z,99716.49
2018-05-16T20:36:44.053Z,99713.77
2018-05-16T20:39:11.662Z,99714.47
2018-05-16T20:41:39.258Z,99720.73
2018-05-16T20:44:06.840Z,99728.97
2018-05-16T20:46:34.446Z,99728.02
2018-05-16T20:49:02.028Z,99730.23
2018-05-16T20:51:29.615Z,99737.78
2018-05-16T20:53:57.241Z,99741.61
2018-05-16T20:56:24.818Z,99738.38
2018-05-16T20:58:52.429Z,99737.56
2018-05-16T21:01:20.062Z,99732.33
2018-05-16T21:03:47.634Z,99734.09
2018-05-16T21:06:15.204Z,99737.59
2018-05-16T21:08:42.805Z,99735.13
2018-05-16T21:11:10.394Z,99736.23
2018-05-16T21:13:37.980Z,99734.09
2018-05-16T21:16:05.597Z,99747.45
2018-05-16T21:18:33.174Z,99756.36
2018-05-16T21:21:00.754Z,99758.19
2018-05-16T21:23:28.353Z,99759.00
2018-05-16T21:25:55.941Z,99763.00
2018-05-16T21:28:23.524Z,99752.02
2018-05-16T21:30:51.149Z,99736.66
2018-05-16T21:33:18.722Z,99723.09
2018-05-16T21:35:46.312Z,99729.95
2018-05-16T21:38:13.914Z,99735.09
2018-05-16T21:40:41.499Z,99733.64
2018-05-16T21:43:15.040Z,99729.09
2018-05-16T21:45:42.619Z,99726.12
2018-05-16T21:48:10.205Z,99724.09
2018-05-16T21:50:38.793Z,99729.59
2018-05-16T21:53:06.383Z,99735.05
2018-05-16T21:55:33.983Z,99728.13
2018-05-16T21:58:01.609Z,99734.29
2018-05-16T22:00:30.128Z,99731.45
2018-05-16T22:02:57.711Z,99735.80
2018-05-16T22:05:25.325Z,99737.57
2018-05-16T22:07:52.920Z,99738.64
2018-05-16T22:10:20.522Z,99747.45
2018-05-16T22:12:48.166Z,99743.50
2018-05-16T22:15:15.756Z,99745.78
2018-05-16T22:17:43.342Z,99730.59
2018-05-16T22:20:11.402Z,99731.25
2018-05-16T22:22:39.018Z,99728.94
2018-05-16T22:25:06.638Z,99723.39
2018-05-16T22:27:34.450Z,99722.98
2018-05-16T22:30:01.480Z,99724.20
2018-05-16T22:32:35.651Z,99727.42
2018-05-16T22:35:08.633Z,99714.09
2018-05-16T22:37:41.827Z,99717.63
2018-05-16T22:40:14.816Z,99717.75
2018-05-16T22:42:41.837Z,99714.89
2018-05-16T22:45:09.455Z,99709.66
2018-05-16T22:47:37.024Z,99709.07
2018-05-16T22:50:04.628Z,99707.17
2018-05-16T22:52:32.198Z,99704.16
2018-05-16T22:54:59.790Z,99702.80
2018-05-16T22:57:27.457Z,99704.09
2018-05-16T22:59:55.057Z,99705.42
2018-05-16T23:02:22.642Z,99706.50
2018-05-16T23:04:50.381Z,99708.67
2018-05-16T23:07:17.961Z,99702.41
2018-05-16T23:09:45.612Z,99703.86
2018-05-16T23:12:13.225Z,99711.31
2018-05-16T23:14:40.806Z,99714.25
2018-05-16T23:17:08.390Z,99709.61
2018-05-16T23:19:36.004Z,99712.95
2018-05-16T23:22:03.945Z,99710.48
2018-05-16T23:24:32.946Z,99709.25
2018-05-16T23:27:00.560Z,99706.23
2018-05-16T23:29:28.128Z,99714.72
2018-05-16T23:31:55.704Z,99712.00
2018-05-16T23:34:25.183Z,99717.52
2018-05-16T23:36:53.487Z,99711.45
2018-05-16T23:39:21.067Z,99709.93
2018-05-16T23:41:48.689Z,99715.30
2018-05-16T23:44:16.261Z,99708.61
2018-05-16T23:46:43.868Z,99706.70
2018-05-16T23:49:11.494Z,99699.61
2018-05-16T23:51:39.094Z,99702.45
2018-05-16T23:54:06.701Z,99705.16
2018-05-16T23:56:34.310Z,99705.29
2018-05-16T23:59:02.334Z,99701.00
